createdAt,value
2022-10-04T00:02:02.961Z,2.90
2022-10-04T00:07:17.367Z,1.83
2022-10-04T00:12:31.564Z,2.20
2022-10-04T00:17:37.198Z,1.77
2022-10-04T00:22:45.718Z,2.23
2022-10-04T00:28:17.612Z,2.00
2022-10-04T00:33:41.925Z,2.50
2022-10-04T00:38:50.403Z,2.50
2022-10-04T00:43:58.532Z,1.90
2022-10-04T00:49:06.972Z,2.57
2022-10-04T00:54:21.252Z,2.20
2022-10-04T00:59:44.926Z,1.83
2022-10-04T01:04:56.347Z,2.33
2022-10-04T01:10:05.646Z,2.13
2022-10-04T01:15:29.278Z,2.53
2022-10-04T01:20:37.726Z,2.03
2022-10-04T01:25:48.543Z,1.90
2022-10-04T01:30:54.636Z,2.40
2022-10-04T01:36:00.185Z,2.30
2022-10-04T01:41:08.722Z,2.20
2022-10-04T01:46:17.350Z,2.53
2022-10-04T01:51:28.669Z,2.30
2022-10-04T01:56:37.172Z,2.53
2022-10-04T02:01:51.419Z,2.87
2022-10-04T02:06:59.475Z,2.23
2022-10-04T02:12:06.260Z,3.07
2022-10-04T02:17:14.182Z,2.80
2022-10-04T02:22:20.124Z,2.83
2022-10-04T02:27:31.486Z,2.77
2022-10-04T02:32:57.240Z,3.77
2022-10-04T02:38:11.650Z,4.07
2022-10-04T02:43:20.095Z,4.27
2022-10-04T02:48:36.887Z,3.63
2022-10-04T02:54:03.612Z,3.67
2022-10-04T02:59:10.672Z,2.70
2022-10-04T03:04:16.354Z,3.07
2022-10-04T03:09:29.462Z,2.67
2022-10-04T03:14:32.569Z,2.53
2022-10-04T03:19:38.970Z,2.53
2022-10-04T03:24:50.123Z,2.83
2022-10-04T03:29:59.281Z,2.60
2022-10-04T03:35:07.699Z,2.93
2022-10-04T03:40:15.611Z,2.97
2022-10-04T03:45:23.617Z,2.90
2022-10-04T03:50:33.764Z,3.70
2022-10-04T03:55:43.741Z,2.70
2022-10-04T04:01:14.955Z,3.70
2022-10-04T04:06:22.093Z,4.30
2022-10-04T04:11:29.327Z,3.23
2022-10-04T04:16:35.508Z,3.20
2022-10-04T04:21:43.143Z,3.33
2022-10-04T04:26:53.108Z,3.33
2022-10-04T04:32:04.227Z,3.13
2022-10-04T04:37:11.814Z,2.97
2022-10-04T04:42:27.684Z,3.30
2022-10-04T04:47:42.113Z,3.50
2022-10-04T04:52:56.459Z,3.30
2022-10-04T04:58:02.451Z,3.20
2022-10-04T05:03:11.881Z,2.80
2022-10-04T05:08:28.059Z,2.67
2022-10-04T05:13:42.387Z,3.87
2022-10-04T05:18:48.702Z,2.87
2022-10-04T05:23:56.281Z,3.40
2022-10-04T05:29:04.775Z,3.20
2022-10-04T05:34:28.444Z,3.60
2022-10-04T05:39:54.844Z,3.27
2022-10-04T05:45:01.555Z,3.50
2022-10-04T05:50:07.331Z,3.07
2022-10-04T05:55:31.318Z,2.87
2022-10-04T06:00:42.684Z,3.63
2022-10-04T06:05:57.699Z,3.17
2022-10-04T06:11:25.834Z,3.00
2022-10-04T06:16:55.594Z,3.37
2022-10-04T06:22:09.611Z,4.70
2022-10-04T06:27:23.845Z,5.43
2022-10-04T06:32:41.119Z,11.63
2022-10-04T06:38:10.797Z,8.67
2022-10-04T06:43:25.121Z,5.57
2022-10-04T06:48:56.654Z,8.90
2022-10-04T06:54:10.804Z,5.97
2022-10-04T06:59:27.914Z,5.03
2022-10-04T07:10:11.909Z,5.27
2022-10-04T07:15:29.417Z,4.17
2022-10-04T07:20:37.709Z,4.30
2022-10-04T07:25:52.523Z,4.57
2022-10-04T07:31:02.684Z,4.07
2022-10-04T07:36:28.828Z,4.00
2022-10-04T07:41:37.360Z,2.80
2022-10-04T07:46:57.422Z,3.70
2022-10-04T07:52:18.562Z,2.37
2022-10-04T07:57:31.186Z,3.20
2022-10-04T08:02:48.569Z,2.57
2022-10-04T08:08:21.331Z,2.00
2022-10-04T08:13:38.931Z,1.77
2022-10-04T08:19:20.655Z,2.00
2022-10-04T08:24:43.952Z,1.67
2022-10-04T08:29:55.548Z,2.50
2022-10-04T08:35:14.864Z,2.07
2022-10-04T08:40:38.609Z,2.60
2022-10-04T08:46:09.755Z,2.13
2022-10-04T08:51:42.136Z,3.30
2022-10-04T08:57:16.686Z,2.40
2022-10-04T09:02:37.586Z,2.67
2022-10-04T09:08:00.929Z,1.73
2022-10-04T09:13:31.430Z,2.27
2022-10-04T09:19:00.141Z,1.60
2022-10-04T09:24:14.423Z,1.77
2022-10-04T09:29:54.479Z,2.13
2022-10-04T09:35:06.585Z,1.60
2022-10-04T09:40:34.844Z,1.97
2022-10-04T09:45:49.157Z,1.93
2022-10-04T09:51:13.217Z,2.30
2022-10-04T09:56:47.353Z,1.57
2022-10-04T10:02:31.989Z,1.17
2022-10-04T10:07:56.856Z,1.60
2022-10-04T10:13:12.563Z,1.13
2022-10-04T10:18:23.620Z,1.60
2022-10-04T10:23:56.122Z,1.80
2022-10-04T10:29:38.016Z,1.33
2022-10-04T10:34:56.203Z,1.60
2022-10-04T10:40:38.008Z,1.70
2022-10-04T10:46:07.023Z,1.90
2022-10-04T10:51:27.984Z,2.00
2022-10-04T10:57:06.636Z,1.60
2022-10-04T11:02:49.527Z,1.30
2022-10-04T11:08:23.426Z,1.37
2022-10-04T11:13:42.697Z,1.70
2022-10-04T11:19:18.603Z,1.60
2022-10-04T11:25:00.174Z,1.40
2022-10-04T11:30:26.731Z,1.63
2022-10-04T11:35:55.632Z,1.20
2022-10-04T11:41:07.437Z,2.20
2022-10-04T11:46:24.711Z,1.50
2022-10-04T11:51:48.858Z,1.80
2022-10-04T11:57:27.815Z,1.90
2022-10-04T12:03:11.131Z,1.60
2022-10-04T12:08:29.081Z,2.00
2022-10-04T12:13:55.437Z,1.83
2022-10-04T12:19:22.094Z,1.80
2022-10-04T12:24:47.838Z,1.63
2022-10-04T12:30:28.225Z,2.30
2022-10-04T12:35:42.497Z,2.10
2022-10-04T12:40:54.104Z,2.27
2022-10-04T12:46:19.251Z,2.20
2022-10-04T12:51:39.811Z,2.13
2022-10-04T12:56:53.997Z,2.08
2022-10-04T13:02:14.252Z,1.60
2022-10-04T13:07:43.862Z,1.90
2022-10-04T13:13:08.983Z,1.27
2022-10-04T13:18:17.947Z,1.77
2022-10-04T13:23:40.869Z,1.00
2022-10-04T13:28:52.395Z,1.50
2022-10-04T13:34:25.526Z,1.30
2022-10-04T13:39:58.418Z,1.80
2022-10-04T13:45:26.305Z,0.90
2022-10-04T13:50:34.731Z,1.40
2022-10-04T13:56:03.840Z,1.20
2022-10-04T14:01:32.559Z,0.90
2022-10-04T14:06:52.439Z,1.20
2022-10-04T14:12:34.407Z,1.00
2022-10-04T14:17:48.621Z,1.10
2022-10-04T14:23:23.462Z,1.10
2022-10-04T14:28:52.875Z,1.20
2022-10-04T14:34:16.130Z,1.27
2022-10-04T14:39:42.852Z,1.20
2022-10-04T14:44:55.969Z,1.10
2022-10-04T14:50:07.140Z,1.00
2022-10-04T14:55:32.674Z,1.50
2022-10-04T15:00:57.909Z,1.10
2022-10-04T15:06:12.642Z,1.03
2022-10-04T15:11:39.966Z,1.13
2022-10-04T15:17:00.347Z,1.27
2022-10-04T15:22:15.911Z,1.30
2022-10-04T15:27:47.324Z,1.33
2022-10-04T15:33:12.344Z,1.20
2022-10-04T15:38:37.348Z,1.40
2022-10-04T15:43:51.757Z,1.33
2022-10-04T15:49:23.467Z,1.73
2022-10-04T15:54:50.043Z,1.37
2022-10-04T16:00:22.531Z,1.50
2022-10-04T16:05:40.118Z,1.20
2022-10-04T16:11:14.350Z,1.40
2022-10-04T16:16:26.002Z,1.70
2022-10-04T16:21:52.582Z,1.50
2022-10-04T16:27:05.005Z,3.50
2022-10-04T16:32:22.549Z,2.37
2022-10-04T16:37:49.248Z,1.90
2022-10-04T16:43:02.269Z,1.63
2022-10-04T16:48:39.687Z,2.47
2022-10-04T16:53:53.837Z,1.97
2022-10-04T16:59:05.139Z,2.13
2022-10-04T17:04:35.915Z,1.93
2022-10-04T17:10:08.700Z,2.40
2022-10-04T17:15:36.505Z,2.40
2022-10-04T17:20:55.508Z,1.90
2022-10-04T17:26:19.049Z,2.23
2022-10-04T17:31:42.739Z,2.10
2022-10-04T17:36:51.776Z,2.60
2022-10-04T17:42:01.285Z,2.73
2022-10-04T17:47:18.103Z,2.90
2022-10-04T17:52:51.864Z,2.77
2022-10-04T17:58:15.599Z,2.63
2022-10-04T18:03:45.324Z,2.60
2022-10-04T18:09:05.754Z,3.00
2022-10-04T18:14:39.854Z,3.10
2022-10-04T18:19:51.607Z,2.70
2022-10-04T18:25:19.842Z,2.77
2022-10-04T18:30:27.592Z,3.10
2022-10-04T18:35:37.442Z,2.90
2022-10-04T18:40:48.909Z,2.80
2022-10-04T18:52:11.157Z,2.87
2022-10-04T18:57:38.323Z,2.30
2022-10-04T19:03:11.698Z,2.43
2022-10-04T19:08:34.237Z,2.87
2022-10-04T19:13:46.959Z,2.60
2022-10-04T19:18:59.934Z,2.73
2022-10-04T19:24:17.346Z,3.00
2022-10-04T19:29:28.613Z,3.20
2022-10-04T19:34:56.422Z,3.13
2022-10-04T19:40:11.060Z,3.13
2022-10-04T19:45:53.165Z,3.03
2022-10-04T19:51:04.808Z,3.17
2022-10-04T19:56:22.589Z,2.87
2022-10-04T20:01:29.962Z,2.57
2022-10-04T20:06:37.294Z,2.40
2022-10-04T20:11:49.625Z,2.50
2022-10-04T20:16:58.206Z,2.70
2022-10-04T20:22:17.036Z,2.43
2022-10-04T20:27:28.792Z,2.77
2022-10-04T20:32:40.578Z,2.60
2022-10-04T20:38:27.306Z,2.43
2022-10-04T20:43:18.463Z,2.80
2022-10-04T20:48:29.710Z,2.40
2022-10-04T20:53:35.397Z,2.50
2022-10-04T20:58:41.493Z,2.33
2022-10-04T21:03:47.847Z,2.30
2022-10-04T21:08:53.366Z,2.70
2022-10-04T21:14:01.212Z,3.03
2022-10-04T21:19:31.331Z,2.13
2022-10-04T21:24:44.845Z,2.67
2022-10-04T21:29:50.301Z,2.63
2022-10-04T21:34:55.844Z,2.57
2022-10-04T21:40:01.413Z,2.53
2022-10-04T21:45:07.516Z,2.60
2022-10-04T21:50:13.567Z,2.40
2022-10-04T21:55:19.195Z,2.90
2022-10-04T22:00:25.631Z,2.53
2022-10-04T22:05:31.423Z,2.77
2022-10-04T22:10:36.940Z,2.33
2022-10-04T22:15:42.622Z,3.40
2022-10-04T22:20:48.075Z,2.50
2022-10-04T22:25:54.617Z,2.20
2022-10-04T22:30:59.995Z,2.20
2022-10-04T22:36:34.227Z,2.33
2022-10-04T22:41:48.192Z,2.33
2022-10-04T22:46:56.381Z,2.33
2022-10-04T22:52:05.108Z,2.20
2022-10-04T22:57:14.388Z,2.67
2022-10-04T23:02:29.197Z,2.47
2022-10-04T23:07:38.167Z,2.80
2022-10-04T23:12:43.426Z,2.20
2022-10-04T23:17:56.025Z,2.23
2022-10-04T23:23:01.672Z,2.30
2022-10-04T23:28:11.343Z,2.60
2022-10-04T23:33:22.817Z,2.50
2022-10-04T23:38:30.621Z,2.53
2022-10-04T23:43:36.573Z,2.40
2022-10-04T23:48:42.958Z,2.33
2022-10-04T23:53:51.696Z,2.17
2022-10-04T23:58:59.720Z,2.37
